Terminal Aerodrome Forecast
Issued by NWS Cleveland, OH

Home | Current Version | Previous Version | Graphics & Text | Print | Product List | Glossary On
Versions: 1 2 3 4 5 6 7 8 9 10 11 12 13 14 15 16
000
FTUS41 KCLE 231100
TAFERI
TAF
KERI 231124Z 2312/2412 16010G20KT P6SM -SHRA OVC060
     FM231400 15012G24KT P6SM OVC060
     FM231900 16007KT P6SM OVC035
     FM240300 14007KT P6SM OVC070
     FM240800 16008KT 4SM -SHRA BR OVC035=

USA.gov is the U.S. government's official web portal to all federal, state and local government web resources and services.